createdAt,value
2023-03-19T00:04:02.029Z,100844.13
2023-03-19T00:09:05.228Z,100845.00
2023-03-19T00:14:07.450Z,100839.66
2023-03-19T00:19:09.176Z,100844.88
2023-03-19T00:24:12.583Z,100850.09
2023-03-19T00:29:14.758Z,100844.81
2023-03-19T00:34:16.440Z,100854.38
2023-03-19T00:39:19.495Z,100841.97
2023-03-19T00:44:21.442Z,100845.50
2023-03-19T00:49:23.411Z,100848.06
2023-03-19T00:54:26.445Z,100860.19
2023-03-19T00:59:28.162Z,100853.19
2023-03-19T01:04:29.979Z,100860.16
2023-03-19T01:09:33.636Z,100856.59
2023-03-19T01:14:35.813Z,100861.81
2023-03-19T01:19:37.950Z,100858.28
2023-03-19T01:24:41.438Z,100855.69
2023-03-19T01:29:43.535Z,100854.78
2023-03-19T01:34:45.550Z,100857.50
2023-03-19T01:39:51.212Z,100869.78
2023-03-19T01:44:53.483Z,100861.03
2023-03-19T01:49:57.332Z,100865.47
2023-03-19T01:55:03.122Z,100850.63
2023-03-19T02:00:07.085Z,100849.84
2023-03-19T02:05:12.147Z,100844.63
2023-03-19T02:10:17.447Z,100847.41
2023-03-19T02:15:20.088Z,100843.94
2023-03-19T02:20:27.517Z,100840.44
2023-03-19T02:25:38.186Z,100844.06
2023-03-19T02:30:43.349Z,100847.63
2023-03-19T02:35:47.718Z,100845.88
2023-03-19T02:40:58.351Z,100841.59
2023-03-19T02:46:02.278Z,100836.34
2023-03-19T02:51:04.842Z,100839.00
2023-03-19T02:56:07.731Z,100846.00
2023-03-19T03:01:11.282Z,100839.88
2023-03-19T03:06:13.502Z,100855.72
2023-03-19T03:11:15.595Z,100846.88
2023-03-19T03:16:19.266Z,100866.22
2023-03-19T03:21:21.662Z,100890.84
2023-03-19T03:26:23.715Z,100904.16
2023-03-19T03:31:33.119Z,100904.13
2023-03-19T03:36:35.219Z,100902.31
2023-03-19T03:41:37.248Z,100898.78
2023-03-19T03:46:40.992Z,100909.28
2023-03-19T03:51:42.717Z,100909.28
2023-03-19T03:56:44.924Z,100909.25
2023-03-19T04:01:48.491Z,100910.97
2023-03-19T04:06:52.515Z,100925.06
2023-03-19T04:11:54.612Z,100933.88
2023-03-19T04:16:58.115Z,100925.09
2023-03-19T04:22:00.225Z,100926.88
2023-03-19T04:27:02.316Z,100909.41
2023-03-19T04:32:06.646Z,100900.72
2023-03-19T04:37:09.250Z,100914.72
2023-03-19T04:42:11.107Z,100912.91
2023-03-19T04:47:14.830Z,100918.13
2023-03-19T04:52:16.931Z,100917.25
2023-03-19T04:57:19.152Z,100904.00
2023-03-19T05:02:22.744Z,100894.31
2023-03-19T05:07:24.869Z,100892.56
2023-03-19T05:12:26.902Z,100888.97
2023-03-19T05:17:30.768Z,100887.16
2023-03-19T05:22:40.470Z,100901.16
2023-03-19T05:27:42.532Z,100895.88
2023-03-19T05:32:46.250Z,100887.97
2023-03-19T05:37:48.374Z,100888.00
2023-03-19T05:42:51.182Z,100882.69
2023-03-19T05:47:54.593Z,100893.22
2023-03-19T05:52:57.084Z,100899.44
2023-03-19T05:57:59.534Z,100912.72
2023-03-19T06:03:03.262Z,100921.59
2023-03-19T06:08:05.903Z,100923.50
2023-03-19T06:13:07.777Z,100950.75
2023-03-19T06:18:13.373Z,100934.97
2023-03-19T06:23:16.394Z,100933.25
2023-03-19T06:28:18.901Z,100940.31
2023-03-19T06:33:22.416Z,100950.03
2023-03-19T06:38:24.725Z,100955.38
2023-03-19T06:43:27.048Z,101013.38
2023-03-19T06:48:30.586Z,101038.09
2023-03-19T06:53:33.721Z,101037.28
2023-03-19T06:58:36.007Z,101015.31
2023-03-19T07:03:39.705Z,101003.88
2023-03-19T07:08:41.886Z,100974.75
2023-03-19T07:13:44.399Z,100995.88
2023-03-19T07:18:47.781Z,100986.22
2023-03-19T07:23:49.996Z,100988.00
2023-03-19T07:28:52.290Z,100982.69
2023-03-19T07:33:55.863Z,100984.47
2023-03-19T07:38:58.467Z,100989.81
2023-03-19T07:44:00.769Z,101009.25
2023-03-19T07:49:05.264Z,101011.94
2023-03-19T07:54:07.640Z,101019.91
2023-03-19T07:59:09.820Z,101056.91
2023-03-19T08:04:13.356Z,101070.09
2023-03-19T08:09:15.392Z,101049.78
2023-03-19T08:14:17.318Z,101050.66
2023-03-19T08:19:20.896Z,101061.16
2023-03-19T08:24:22.992Z,101058.50
2023-03-19T08:29:25.090Z,101015.34
2023-03-19T08:34:28.398Z,101009.16
2023-03-19T08:39:30.466Z,101012.69
2023-03-19T08:44:32.243Z,101004.88
2023-03-19T08:49:35.757Z,101011.97
2023-03-19T08:54:37.571Z,101001.31
2023-03-19T08:59:39.727Z,100995.06
2023-03-19T09:04:43.058Z,100988.81
2023-03-19T09:09:45.610Z,100989.44
2023-03-19T09:14:47.417Z,100991.94
2023-03-19T09:19:52.887Z,100983.84
2023-03-19T09:24:55.015Z,100975.69
2023-03-19T09:29:56.782Z,100992.47
2023-03-19T09:35:00.425Z,101001.88
2023-03-19T09:40:02.492Z,101006.00
2023-03-19T09:45:12.225Z,101000.78
2023-03-19T09:50:17.460Z,101001.53
2023-03-19T09:55:36.009Z,101000.34
2023-03-19T10:00:39.593Z,101005.72
2023-03-19T10:05:55.041Z,101001.41
2023-03-19T10:11:15.314Z,101004.97
2023-03-19T10:16:21.426Z,100999.97
2023-03-19T10:21:33.072Z,101006.56
2023-03-19T10:26:35.827Z,100995.78
2023-03-19T10:31:43.924Z,101011.59
2023-03-19T10:36:47.597Z,101021.81
2023-03-19T10:41:57.684Z,101020.06
2023-03-19T10:47:08.886Z,101012.03
2023-03-19T10:52:22.676Z,101018.38
2023-03-19T10:57:27.950Z,101028.00
2023-03-19T11:02:31.075Z,101028.41
2023-03-19T11:07:36.652Z,101024.69
2023-03-19T11:12:38.930Z,101018.44
2023-03-19T11:17:46.090Z,101015.00
2023-03-19T11:22:49.901Z,101009.31
2023-03-19T11:27:59.275Z,101010.19
2023-03-19T11:33:25.908Z,101005.75
2023-03-19T11:38:39.597Z,101006.53
2023-03-19T11:43:47.022Z,100997.16
2023-03-19T11:49:11.256Z,101001.25
2023-03-19T11:54:23.803Z,100985.19
2023-03-19T11:59:38.032Z,100987.00
2023-03-19T12:04:59.016Z,100988.78
2023-03-19T12:10:20.386Z,101003.38
2023-03-19T12:15:27.942Z,100993.25
2023-03-19T12:20:40.694Z,100992.16
2023-03-19T12:25:57.685Z,100986.09
2023-03-19T12:31:19.117Z,100996.28
2023-03-19T12:36:25.912Z,100993.53
2023-03-19T12:41:30.692Z,100980.13
2023-03-19T12:46:36.482Z,100982.50
2023-03-19T12:51:42.104Z,100975.16
2023-03-19T12:56:51.733Z,100966.34
2023-03-19T13:02:01.888Z,100967.63
2023-03-19T13:07:10.065Z,100981.22
2023-03-19T13:12:20.704Z,100965.31
2023-03-19T13:17:27.518Z,100963.84
2023-03-19T13:22:35.210Z,100969.31
2023-03-19T13:27:38.715Z,100971.91
2023-03-19T13:32:43.121Z,100963.06
2023-03-19T13:37:48.021Z,100958.50
2023-03-19T13:42:57.337Z,100948.50
2023-03-19T13:48:24.705Z,100947.44
2023-03-19T13:53:40.532Z,100942.44
2023-03-19T13:58:49.481Z,100946.75
2023-03-19T14:03:56.043Z,100937.88
2023-03-19T14:08:58.955Z,100931.16
2023-03-19T14:14:05.584Z,100937.19
2023-03-19T14:19:12.470Z,100930.22
2023-03-19T14:29:55.144Z,100922.78
2023-03-19T14:34:57.797Z,100923.34
2023-03-19T14:40:09.582Z,100928.56
2023-03-19T14:45:54.904Z,100923.53
2023-03-19T14:51:25.332Z,100920.00
2023-03-19T14:56:31.993Z,100929.81
2023-03-19T15:01:40.726Z,100927.28
2023-03-19T15:06:44.966Z,100916.50
2023-03-19T15:12:26.926Z,100925.50
2023-03-19T15:17:31.600Z,100920.34
2023-03-19T15:22:34.702Z,100923.50
2023-03-19T15:27:36.903Z,100920.06
2023-03-19T15:33:19.721Z,100920.31
2023-03-19T15:38:08.860Z,100925.78
2023-03-19T15:43:12.800Z,100933.72
2023-03-19T15:48:21.481Z,100934.25
2023-03-19T15:53:26.207Z,100929.16
2023-03-19T15:58:32.161Z,100930.47
2023-03-19T16:03:38.106Z,100933.41
2023-03-19T16:08:47.313Z,100930.75
2023-03-19T16:14:00.309Z,100932.16
2023-03-19T16:19:04.063Z,100935.13
2023-03-19T16:24:18.806Z,100945.28
2023-03-19T16:29:24.031Z,100943.59
2023-03-19T16:34:33.270Z,100948.94
2023-03-19T16:39:37.240Z,100948.25
2023-03-19T16:44:41.024Z,100949.34
2023-03-19T16:49:46.353Z,100950.00
2023-03-19T16:54:48.941Z,100963.72
2023-03-19T16:59:51.141Z,100961.75
2023-03-19T17:04:54.453Z,100963.25
2023-03-19T17:09:56.262Z,100965.78
2023-03-19T17:14:58.053Z,100960.06
2023-03-19T17:20:01.508Z,100970.47
2023-03-19T17:25:03.414Z,100977.31
2023-03-19T17:30:06.473Z,100980.50
2023-03-19T17:35:16.267Z,100980.19
2023-03-19T17:40:20.453Z,100985.88
2023-03-19T17:45:26.517Z,100990.75
2023-03-19T17:50:31.540Z,100996.28
2023-03-19T17:55:33.831Z,101000.03
2023-03-19T18:00:35.879Z,101009.72
2023-03-19T18:05:39.524Z,101008.75
2023-03-19T18:10:42.165Z,101005.28
2023-03-19T18:15:45.531Z,101015.16
2023-03-19T18:20:50.617Z,101016.19
2023-03-19T18:25:53.306Z,101018.97
2023-03-19T18:30:56.124Z,101021.63
2023-03-19T18:36:02.936Z,101025.97
2023-03-19T18:41:05.478Z,101031.09
2023-03-19T18:46:12.632Z,101023.97
2023-03-19T18:51:17.142Z,101023.00
2023-03-19T18:56:22.931Z,101020.41
2023-03-19T19:01:26.594Z,101030.22
2023-03-19T19:06:46.415Z,101038.25
2023-03-19T19:11:49.973Z,101043.53
2023-03-19T19:16:54.041Z,101038.19
2023-03-19T19:21:57.653Z,101039.00
2023-03-19T19:27:00.304Z,101045.00
2023-03-19T19:32:03.328Z,101053.84
2023-03-19T19:37:14.415Z,101062.59
2023-03-19T19:42:19.524Z,101064.19
2023-03-19T19:47:21.874Z,101057.97
2023-03-19T19:52:25.708Z,101062.38
2023-03-19T19:57:28.080Z,101072.97
2023-03-19T20:02:30.652Z,101075.69
2023-03-19T20:07:34.900Z,101076.72
2023-03-19T20:12:37.464Z,101073.31
2023-03-19T20:17:40.193Z,101082.25
2023-03-19T20:22:43.472Z,101080.59
2023-03-19T20:27:47.240Z,101078.91
2023-03-19T20:32:49.805Z,101084.31
2023-03-19T20:37:55.316Z,101071.97
2023-03-19T20:42:57.922Z,101095.88
2023-03-19T20:48:00.075Z,101090.59
2023-03-19T20:53:03.559Z,101088.88
2023-03-19T20:58:21.043Z,101087.19
2023-03-19T21:03:24.724Z,101089.03
2023-03-19T21:08:33.428Z,101096.19
2023-03-19T21:13:37.021Z,101088.31
2023-03-19T21:18:39.087Z,101088.41
2023-03-19T21:23:47.855Z,101093.75
2023-03-19T21:28:51.960Z,101094.63
2023-03-19T21:33:54.335Z,101091.97
2023-03-19T21:38:58.693Z,101084.00
2023-03-19T21:44:03.553Z,101077.81
2023-03-19T21:49:10.781Z,101076.09
2023-03-19T21:54:14.321Z,101081.50
2023-03-19T21:59:19.540Z,101075.34
2023-03-19T22:04:21.632Z,101082.47
2023-03-19T22:09:25.071Z,101074.63
2023-03-19T22:14:27.166Z,101074.66
2023-03-19T22:19:29.602Z,101071.19
2023-03-19T22:24:33.128Z,101077.34
2023-03-19T22:29:35.324Z,101064.94
2023-03-19T22:34:37.538Z,101074.69
2023-03-19T22:39:41.189Z,101066.72
2023-03-19T22:44:43.323Z,101072.91
2023-03-19T22:49:45.755Z,101064.97
2023-03-19T22:54:49.240Z,101065.88
2023-03-19T22:59:51.426Z,101058.84
2023-03-19T23:04:53.498Z,101062.50
2023-03-19T23:09:57.183Z,101058.13
2023-03-19T23:15:02.406Z,101053.78
2023-03-19T23:20:12.493Z,101062.69
2023-03-19T23:25:18.748Z,101063.75
2023-03-19T23:30:24.150Z,101068.25
2023-03-19T23:35:27.969Z,101071.88
2023-03-19T23:40:33.447Z,101067.50
2023-03-19T23:45:38.326Z,101069.31
2023-03-19T23:50:40.634Z,101064.00
2023-03-19T23:55:44.176Z,101064.88
